Time;durP1;ratioP1;P1;durP2;ratioP2;P2;SDS_P1;SDS_P2;PMS_P1;PMS_P2;Temp;Humidity;BMP_temperature;BMP_pressure;BME280_temperature;BME280_humidity;BME280_pressure;Samples;Min_cycle;Max_cycle;Signal;HPM_P1;HPM_P2
2022/12/26 00:00:20;;;;;;;;;48.20;39.80;;;;;9.57;58.44;98898.41;6249428;27;96333;-64
2022/12/26 00:03:24;;;;;;;;;49.50;39.75;;;;;9.62;58.40;98907.69;6239708;27;96366;-66
2022/12/26 00:06:30;;;;;;;;;49.75;40.25;;;;;9.64;58.31;98909.13;6235472;27;96260;-64
2022/12/26 00:09:34;;;;;;;;;48.50;39.50;;;;;9.66;58.20;98906.22;6248269;27;97799;-64
2022/12/26 00:12:37;;;;;;;;;48.50;40.00;;;;;9.67;58.22;98910.56;6187534;28;98221;-64
2022/12/26 00:15:43;;;;;;;;;53.25;42.50;;;;;9.72;58.13;98900.81;6250821;27;96776;-65
2022/12/26 00:18:46;;;;;;;;;52.00;40.50;;;;;9.69;58.22;98886.94;6230719;27;96477;-65
2022/12/26 00:21:51;;;;;;;;;51.75;41.00;;;;;9.64;58.07;98866.03;6231387;27;96478;-64
2022/12/26 00:24:55;;;;;;;;;53.60;42.00;;;;;9.57;58.08;98858.03;6232088;27;96295;-64
2022/12/26 00:27:58;;;;;;;;;55.20;42.00;;;;;9.53;58.28;98847.88;6229372;27;96921;-65
2022/12/26 00:31:04;;;;;;;;;52.40;42.40;;;;;9.23;58.14;98804.63;6223016;28;96630;-64
2022/12/26 00:34:08;;;;;;;;;50.80;41.40;;;;;9.43;57.99;98832.22;6221399;28;96380;-65
2022/12/26 00:37:13;;;;;;;;;52.75;43.25;;;;;8.94;58.10;98762.16;6221784;27;96506;-64
2022/12/26 00:40:17;;;;;;;;;54.40;43.00;;;;;9.44;57.59;98831.16;6231214;27;96603;-64
2022/12/26 00:43:21;;;;;;;;;51.60;42.00;;;;;9.40;57.65;98829.97;6234006;27;96346;-65
2022/12/26 00:46:25;;;;;;;;;54.75;42.50;;;;;9.34;57.75;98830.81;6248103;27;96369;-64
2022/12/26 00:49:28;;;;;;;;;50.50;40.50;;;;;9.38;57.77;98828.53;6206198;27;96636;-64
2022/12/26 00:52:54;;;;;;;;;53.00;43.00;;;;;9.37;57.80;98829.56;6224789;28;96632;-65
2022/12/26 00:55:57;;;;;;;;;53.00;41.00;;;;;9.36;57.78;98836.00;6245370;27;96512;-64
2022/12/26 00:59:00;;;;;;;;;50.60;40.60;;;;;9.34;57.86;98830.81;6227888;27;96466;-65
2022/12/26 01:02:36;;;;;;;;;50.40;42.00;;;;;9.36;57.54;98826.06;6241470;27;96293;-65
2022/12/26 01:05:28;;;;;;;;;52.20;42.20;;;;;9.36;57.74;98830.59;6235501;27;98012;-64
2022/12/26 01:08:33;;;;;;;;;50.00;41.00;;;;;9.42;57.75;98832.44;6228691;27;96881;-64
2022/12/26 01:11:42;;;;;;;;;50.40;41.00;;;;;9.42;57.46;98819.00;6238434;27;96491;-65
2022/12/26 01:14:47;;;;;;;;;50.00;40.00;;;;;9.41;57.49;98812.78;6234783;27;96382;-65
2022/12/26 01:17:51;;;;;;;;;50.60;40.20;;;;;9.36;57.50;98809.91;6228366;27;96407;-66
2022/12/26 01:20:58;;;;;;;;;54.00;42.60;;;;;9.13;57.58;98780.88;6216583;28;97716;-66
2022/12/26 01:24:03;;;;;;;;;52.20;42.00;;;;;9.25;57.89;98813.28;6228485;27;96834;-64
2022/12/26 01:27:07;;;;;;;;;49.00;38.60;;;;;9.19;57.82;98827.56;6197339;28;96788;-64
2022/12/26 01:30:11;;;;;;;;;51.40;41.60;;;;;9.20;57.75;98812.25;6230120;27;97705;-66
2022/12/26 01:33:14;;;;;;;;;50.00;41.00;;;;;9.27;57.97;98827.34;6230918;27;96429;-66
2022/12/26 01:36:18;;;;;;;;;52.75;42.25;;;;;9.29;58.18;98819.03;6221115;28;96249;-63
2022/12/26 01:39:23;;;;;;;;;51.80;41.60;;;;;9.30;58.29;98818.00;6243982;27;96435;-65
2022/12/26 01:42:34;;;;;;;;;50.00;41.20;;;;;9.33;58.56;98818.44;6226410;28;97233;-65
2022/12/26 01:45:38;;;;;;;;;49.00;40.00;;;;;9.36;58.35;98809.09;6232041;28;96745;-64
2022/12/26 01:48:42;;;;;;;;;50.00;41.00;;;;;9.40;58.65;98811.13;6231443;27;96381;-64
2022/12/26 01:51:51;;;;;;;;;50.20;40.60;;;;;9.46;58.55;98820.19;6217188;27;96620;-64
2022/12/26 01:54:57;;;;;;;;;48.80;39.40;;;;;9.45;58.46;98810.47;6229903;27;96937;-65
2022/12/26 01:58:05;;;;;;;;;49.40;40.40;;;;;9.54;58.56;98801.94;6212909;28;96720;-65
2022/12/26 02:01:10;;;;;;;;;52.00;41.40;;;;;9.54;58.42;98807.31;6236218;27;97072;-64
2022/12/26 02:07:44;;;;;;;;;49.00;39.00;;;;;9.65;58.14;98804.97;6248023;27;96571;-65
2022/12/26 02:10:55;;;;;;;;;49.00;39.60;;;;;9.66;57.97;98802.06;6238018;27;96227;-65
2022/12/26 02:14:00;;;;;;;;;47.00;38.75;;;;;9.67;58.05;98792.94;6206371;28;98595;-64
2022/12/26 02:17:03;;;;;;;;;50.20;39.60;;;;;9.65;58.34;98800.41;6213227;28;96623;-64
2022/12/26 02:20:17;;;;;;;;;48.60;38.20;;;;;9.70;58.29;98787.13;6229103;28;96592;-65
2022/12/26 02:23:42;;;;;;;;;49.00;40.00;;;;;9.74;58.07;98782.13;6228944;28;96433;-65
2022/12/26 02:27:10;;;;;;;;;45.80;38.00;;;;;9.78;58.04;98776.06;6236586;27;97110;-64
2022/12/26 02:30:42;;;;;;;;;49.00;40.00;;;;;9.81;57.71;98782.91;6243141;27;96744;-64
2022/12/26 02:34:04;;;;;;;;;52.00;42.00;;;;;9.82;57.76;98776.47;6218054;27;96692;-64
2022/12/26 02:37:23;;;;;;;;;45.75;37.75;;;;;9.84;57.71;98780.59;6231121;27;96411;-64
2022/12/26 02:40:43;;;;;;;;;47.80;38.20;;;;;9.86;57.78;98767.75;6247640;27;97636;-64
2022/12/26 02:43:57;;;;;;;;;45.00;36.00;;;;;9.94;57.65;98763.94;6248219;27;96407;-64
2022/12/26 02:47:08;;;;;;;;;48.60;38.80;;;;;9.94;57.62;98754.00;6247887;27;96356;-65
2022/12/26 03:14:54;;;;;;;;;45.60;36.60;;;;;9.77;57.34;98664.06;6226510;28;96455;-64
2022/12/26 03:18:01;;;;;;;;;41.20;35.80;;;;;9.91;57.62;98695.22;6213834;28;96570;-64
2022/12/26 03:21:08;;;;;;;;;42.80;34.00;;;;;9.93;57.20;98711.94;6207604;28;96375;-64
2022/12/26 03:24:16;;;;;;;;;41.00;34.40;;;;;9.84;57.32;98709.75;6217266;28;96535;-64
2022/12/26 03:27:19;;;;;;;;;42.60;36.00;;;;;9.97;57.27;98715.00;6230114;28;97398;-64
2022/12/26 03:37:28;;;;;;;;;42.00;35.25;;;;;9.85;57.45;98706.84;6203999;28;96274;-64
2022/12/26 04:19:25;;;;;;;;;37.60;32.60;;;;;9.36;57.72;98675.38;6217952;27;97114;-64
2022/12/26 04:46:48;;;;;;;;;39.00;33.00;;;;;9.31;57.88;98621.41;6233550;28;96539;-63
2022/12/26 04:53:14;;;;;;;;;40.40;33.00;;;;;9.37;58.15;98625.09;6242649;27;96426;-66
2022/12/26 04:56:18;;;;;;;;;41.00;33.00;;;;;9.37;58.03;98628.63;6249842;27;96243;-65
2022/12/26 04:59:22;;;;;;;;;37.60;33.00;;;;;9.16;57.72;98610.16;6244381;27;96641;-65
2022/12/26 05:12:43;;;;;;;;;34.25;31.50;;;;;9.37;58.02;98620.53;6235668;27;96339;-66
2022/12/26 05:29:18;;;;;;;;;41.40;34.40;;;;;9.47;57.54;98628.13;6238221;27;96806;-63
2022/12/26 05:35:44;;;;;;;;;41.00;35.00;;;;;9.45;57.51;98639.09;6227597;27;96400;-62
2022/12/26 05:38:48;;;;;;;;;39.60;33.00;;;;;9.32;57.16;98636.53;6232564;27;96611;-62
2022/12/26 05:41:51;;;;;;;;;41.00;34.40;;;;;9.36;56.79;98664.63;6230412;28;97476;-62
2022/12/26 05:44:55;;;;;;;;;44.60;35.00;;;;;9.28;56.64;98653.31;6225286;28;97441;-62
2022/12/26 05:47:59;;;;;;;;;42.00;35.00;;;;;9.17;56.73;98652.16;6242442;27;96750;-62
2022/12/26 05:51:04;;;;;;;;;43.00;35.25;;;;;8.97;56.82;98628.09;6236448;27;96222;-63
2022/12/26 05:54:08;;;;;;;;;42.50;35.00;;;;;9.03;57.00;98647.91;6239972;27;96510;-62
2022/12/26 05:57:11;;;;;;;;;46.00;36.00;;;;;8.97;56.98;98646.91;6221345;27;97356;-62
2022/12/26 06:00:16;;;;;;;;;43.60;37.40;;;;;8.97;56.82;98656.84;6249839;27;97062;-63
2022/12/26 06:03:19;;;;;;;;;44.75;36.00;;;;;8.82;56.91;98637.50;6240689;27;96243;-63
2022/12/26 06:06:25;;;;;;;;;43.00;36.00;;;;;8.89;57.32;98660.63;6249921;27;96195;-63
2022/12/26 06:09:28;;;;;;;;;42.80;35.40;;;;;8.69;57.33;98641.09;6231734;27;96416;-63
2022/12/26 06:12:33;;;;;;;;;42.40;35.40;;;;;8.88;57.59;98667.03;6224782;27;97637;-62
2022/12/26 06:15:38;;;;;;;;;39.60;35.00;;;;;8.88;58.40;98669.72;6237717;28;96182;-62
2022/12/26 06:18:42;;;;;;;;;40.60;33.60;;;;;8.90;58.64;98674.88;6231820;28;96228;-62
2022/12/26 06:21:47;;;;;;;;;44.75;37.50;;;;;8.90;58.98;98669.50;6250624;27;96492;-62
2022/12/26 06:24:50;;;;;;;;;39.80;33.00;;;;;9.05;59.09;98668.16;6231266;27;96212;-62
2022/12/26 06:27:54;;;;;;;;;41.00;34.40;;;;;9.12;58.58;98673.50;6220749;27;96380;-62
2022/12/26 06:31:02;;;;;;;;;37.50;33.00;;;;;9.16;58.38;98674.72;6235839;28;96279;-62
2022/12/26 06:34:05;;;;;;;;;41.60;34.00;;;;;9.17;58.38;98657.53;6238991;28;96527;-62
2022/12/26 06:37:10;;;;;;;;;42.00;35.00;;;;;9.23;58.39;98667.44;6235450;28;96652;-63
2022/12/26 06:40:13;;;;;;;;;45.00;35.00;;;;;9.19;58.27;98681.53;6226687;28;96832;-62
2022/12/26 06:43:17;;;;;;;;;46.00;37.40;;;;;9.18;57.99;98680.72;6251754;27;96903;-62
2022/12/26 06:46:22;;;;;;;;;47.20;38.00;;;;;9.17;57.86;98680.91;6241823;27;96329;-62
2022/12/26 06:49:26;;;;;;;;;50.00;40.60;;;;;9.14;58.00;98679.47;6240566;27;96220;-62
2022/12/26 06:52:36;;;;;;;;;49.80;40.00;;;;;9.14;57.87;98677.59;6257195;27;96461;-62
2022/12/26 06:55:39;;;;;;;;;52.50;43.00;;;;;9.18;57.79;98680.72;6234852;27;96177;-62
2022/12/26 06:58:44;;;;;;;;;54.40;44.00;;;;;9.18;58.00;98682.56;6234520;28;96412;-62
2022/12/26 07:01:48;;;;;;;;;50.40;40.80;;;;;9.24;57.85;98703.19;6224058;28;96984;-62
2022/12/26 07:04:51;;;;;;;;;47.75;39.00;;;;;9.34;57.91;98707.06;6252456;27;96710;-62
2022/12/26 07:07:56;;;;;;;;;52.50;43.00;;;;;9.40;57.74;98708.88;6243770;27;96319;-63
2022/12/26 07:11:00;;;;;;;;;50.75;40.75;;;;;9.47;57.78;98717.75;6241067;28;96269;-62
2022/12/26 07:14:03;;;;;;;;;49.75;41.00;;;;;9.55;57.74;98711.25;6240319;27;97282;-62
2022/12/26 07:17:08;;;;;;;;;50.00;42.00;;;;;9.62;57.44;98709.34;6234876;27;96465;-62
2022/12/26 07:20:13;;;;;;;;;49.00;41.00;;;;;9.69;57.24;98710.09;6214347;28;97019;-63
2022/12/26 07:23:18;;;;;;;;;52.00;41.00;;;;;10.34;56.19;98694.38;6235761;28;96649;-63
2022/12/26 07:26:21;;;;;;;;;49.80;39.60;;;;;11.93;52.09;98708.03;6222899;28;96818;-63
2022/12/26 07:29:26;;;;;;;;;48.67;40.00;;;;;13.52;47.88;98671.25;6250188;27;96738;-61
2022/12/26 07:32:29;;;;;;;;;49.60;40.60;;;;;15.19;43.72;98673.50;6227609;28;96253;-62
2022/12/26 07:35:32;;;;;;;;;49.00;40.00;;;;;16.34;41.21;98689.09;6254309;27;96750;-63
2022/12/26 07:38:37;;;;;;;;;45.00;36.00;;;;;17.77;39.16;98671.25;6246314;27;96400;-63
2022/12/26 07:41:58;;;;;;;;;39.40;33.40;;;;;19.12;37.40;98685.63;6223096;28;96394;-62
2022/12/26 07:45:02;;;;;;;;;39.00;33.00;;;;;20.98;34.92;98674.06;6240953;27;96453;-65
2022/12/26 07:48:06;;;;;;;;;34.60;31.00;;;;;22.55;32.59;98677.00;6240379;27;96709;-64
2022/12/26 07:51:10;;;;;;;;;34.00;30.00;;;;;23.72;30.59;98656.84;6224844;28;96346;-64
2022/12/26 07:54:15;;;;;;;;;34.00;30.00;;;;;24.04;29.93;98688.00;6249749;27;97319;-64
2022/12/26 07:57:18;;;;;;;;;35.40;30.00;;;;;22.73;31.24;98686.28;6253070;27;96910;-65
2022/12/26 08:00:41;;;;;;;;;34.00;30.00;;;;;21.06;33.25;98689.84;6253794;27;97014;-62
2022/12/26 08:03:47;;;;;;;;;34.25;31.50;;;;;19.56;35.06;98693.84;6257277;27;96888;-64
2022/12/26 08:06:50;;;;;;;;;34.50;30.25;;;;;18.54;37.10;98723.56;6250042;27;96495;-62
2022/12/26 08:09:55;;;;;;;;;37.00;32.00;;;;;17.61;38.48;98714.06;6247408;27;96908;-65
2022/12/26 08:12:58;;;;;;;;;41.40;35.00;;;;;16.93;39.81;98707.88;6249053;27;96725;-63
2022/12/26 08:16:05;;;;;;;;;40.00;33.00;;;;;16.37;40.73;98704.88;6257406;27;96519;-63
2022/12/26 08:19:10;;;;;;;;;42.20;35.00;;;;;15.96;41.72;98697.53;6239278;27;96794;-64
2022/12/26 08:22:13;;;;;;;;;47.00;38.50;;;;;15.63;42.46;98701.38;6231967;27;98309;-64
2022/12/26 08:25:18;;;;;;;;;47.60;39.60;;;;;15.36;42.92;98709.50;6254214;27;96745;-63
2022/12/26 08:28:41;;;;;;;;;47.40;39.20;;;;;15.06;44.01;98706.44;6244759;27;97154;-63
2022/12/26 08:31:45;;;;;;;;;44.60;36.40;;;;;14.84;44.49;98702.97;6248134;27;96999;-63
2022/12/26 08:34:48;;;;;;;;;44.60;37.00;;;;;14.63;45.15;98710.84;6252134;27;96949;-63
2022/12/26 08:37:52;;;;;;;;;47.60;38.00;;;;;14.41;45.47;98717.34;6252484;27;96381;-62
2022/12/26 08:40:57;;;;;;;;;49.40;40.40;;;;;14.10;46.17;98697.06;6255038;27;97470;-63
2022/12/26 08:44:00;;;;;;;;;47.00;39.00;;;;;14.04;46.59;98728.69;6253490;27;96344;-62
2022/12/26 08:47:26;;;;;;;;;47.00;39.00;;;;;13.85;47.01;98728.13;6241897;27;97723;-63
2022/12/26 08:50:29;;;;;;;;;47.20;39.20;;;;;13.68;47.37;98721.06;6246558;27;96355;-63
2022/12/26 08:53:34;;;;;;;;;51.00;38.20;;;;;13.56;47.59;98723.03;6238804;27;96839;-62
2022/12/26 08:56:39;;;;;;;;;52.00;41.40;;;;;13.45;47.82;98719.31;6239014;27;96400;-62
2022/12/26 08:59:43;;;;;;;;;46.00;38.00;;;;;13.30;48.39;98737.97;6245108;27;96777;-62
2022/12/26 09:02:48;;;;;;;;;46.40;38.40;;;;;13.22;48.96;98727.56;6219566;28;98758;-63
2022/12/26 09:05:51;;;;;;;;;46.40;37.40;;;;;13.16;49.27;98725.81;6230952;28;97490;-61
2022/12/26 09:08:55;;;;;;;;;52.00;39.00;;;;;13.10;49.44;98734.84;6228253;28;96620;-63
2022/12/26 09:11:59;;;;;;;;;52.50;42.00;;;;;13.07;49.20;98735.34;6234487;28;97007;-64
2022/12/26 09:15:03;;;;;;;;;52.40;41.00;;;;;13.00;49.22;98719.25;6229935;28;96284;-63
2022/12/26 09:18:07;;;;;;;;;47.20;38.20;;;;;13.06;49.40;98729.13;6223520;27;96331;-63
2022/12/26 09:21:12;;;;;;;;;50.80;41.00;;;;;13.09;49.26;98730.53;6234941;28;96362;-63
2022/12/26 09:24:17;;;;;;;;;48.80;40.20;;;;;13.23;49.17;98718.38;6228184;28;96779;-63
2022/12/26 09:27:22;;;;;;;;;48.75;39.00;;;;;13.45;48.83;98720.13;6235881;27;97699;-63
2022/12/26 09:30:26;;;;;;;;;44.80;37.80;;;;;15.13;46.53;98731.53;6236968;27;96557;-62
2022/12/26 09:33:32;;;;;;;;;46.80;37.80;;;;;15.96;44.37;98722.00;6238815;28;96765;-63
2022/12/26 09:36:37;;;;;;;;;42.00;35.00;;;;;16.01;43.82;98692.13;6238618;27;96725;-63
2022/12/26 09:39:41;;;;;;;;;47.00;38.00;;;;;16.12;43.76;98712.88;6237526;27;96363;-63
2022/12/26 09:42:54;;;;;;;;;50.00;40.00;;;;;16.26;43.42;98714.06;6218187;28;97569;-63
2022/12/26 09:46:09;;;;;;;;;45.00;37.20;;;;;16.67;42.95;98719.75;6237031;28;97086;-62
2022/12/26 09:49:18;;;;;;;;;46.00;38.00;;;;;16.74;42.52;98718.44;6238266;28;96288;-62
2022/12/26 09:52:38;;;;;;;;;48.50;38.00;;;;;16.77;42.96;98725.25;6238528;28;96640;-62
2022/12/26 09:55:46;;;;;;;;;47.00;38.00;;;;;16.54;43.44;98712.03;6220591;28;96435;-63
2022/12/26 09:58:56;;;;;;;;;49.00;40.00;;;;;16.11;43.58;98697.66;6240068;28;96463;-63
2022/12/26 10:01:59;;;;;;;;;49.20;41.20;;;;;15.89;44.05;98714.06;6217786;28;97861;-62
2022/12/26 10:05:06;;;;;;;;;50.00;41.60;;;;;15.62;44.82;98709.78;6236542;27;97392;-62
2022/12/26 10:08:25;;;;;;;;;47.00;38.75;;;;;15.26;45.72;98695.81;6237431;28;96596;-63
2022/12/26 10:11:40;;;;;;;;;51.25;40.50;;;;;14.99;46.54;98714.81;6236674;28;96251;-63
2022/12/26 10:14:53;;;;;;;;;51.40;40.40;;;;;14.72;47.30;98719.34;6239921;27;96535;-63
2022/12/26 10:18:09;;;;;;;;;46.00;39.00;;;;;14.57;48.02;98721.88;6250570;27;96409;-63
2022/12/26 10:21:29;;;;;;;;;42.40;36.00;;;;;14.29;48.57;98710.09;6240093;28;96278;-61
2022/12/26 10:24:37;;;;;;;;;47.50;38.50;;;;;14.31;48.61;98710.69;6241333;28;96781;-65
2022/12/26 10:27:42;;;;;;;;;48.00;38.00;;;;;14.32;49.31;98709.56;6238973;28;96604;-63
2022/12/26 10:30:50;;;;;;;;;46.00;37.40;;;;;14.27;49.20;98703.25;6240979;28;97501;-63
2022/12/26 10:33:58;;;;;;;;;45.60;37.80;;;;;14.28;49.40;98700.31;6250314;27;96404;-62
2022/12/26 10:37:10;;;;;;;;;49.50;39.00;;;;;14.34;49.35;98717.47;6245983;27;97651;-62
2022/12/26 10:40:20;;;;;;;;;48.60;39.20;;;;;14.34;49.88;98706.63;6240362;28;96334;-62
2022/12/26 10:43:28;;;;;;;;;47.00;38.00;;;;;14.40;49.69;98666.88;6237654;28;96389;-63
2022/12/26 10:46:54;;;;;;;;;46.00;38.00;;;;;14.63;49.87;98681.00;6219313;27;96701;-63
2022/12/26 10:49:58;;;;;;;;;45.75;37.75;;;;;14.73;49.54;98667.56;6229991;27;98041;-63
2022/12/26 10:53:06;;;;;;;;;47.60;39.00;;;;;15.40;48.43;98650.03;6239624;28;96332;-64
2022/12/26 10:56:10;;;;;;;;;46.20;37.20;;;;;16.08;46.92;98665.53;6242737;28;96767;-64
2022/12/26 10:59:22;;;;;;;;;44.60;37.60;;;;;16.24;46.56;98659.09;6241138;28;97328;-63
2022/12/26 11:02:30;;;;;;;;;45.25;36.00;;;;;16.15;46.50;98659.88;6224374;28;96546;-63
2022/12/26 11:05:37;;;;;;;;;48.20;37.60;;;;;16.04;46.98;98651.63;6244291;28;96397;-63
2022/12/26 11:09:00;;;;;;;;;41.80;35.20;;;;;15.97;47.48;98647.53;6239766;28;96609;-62
2022/12/26 11:12:05;;;;;;;;;41.60;35.00;;;;;15.99;47.81;98645.34;6224194;28;97369;-64
2022/12/26 11:15:21;;;;;;;;;40.00;34.00;;;;;16.09;47.83;98629.09;6240799;28;96775;-63
2022/12/26 11:18:34;;;;;;;;;41.00;35.00;;;;;16.30;47.45;98621.88;6242180;27;96773;-63
2022/12/26 11:21:37;;;;;;;;;35.40;30.80;;;;;16.61;46.81;98626.38;6240043;28;96488;-62
2022/12/26 11:24:41;;;;;;;;;38.60;32.80;;;;;17.20;46.09;98637.66;6241682;27;96468;-65
2022/12/26 11:27:47;;;;;;;;;29.80;26.00;;;;;18.23;44.67;98631.88;6237264;27;96590;-63
2022/12/26 11:30:50;;;;;;;;;28.80;27.80;;;;;19.60;42.22;98645.66;6240291;28;97466;-63
2022/12/26 11:33:55;;;;;;;;;28.00;27.75;;;;;20.54;39.88;98638.72;6230455;28;96460;-63
2022/12/26 11:36:58;;;;;;;;;32.60;29.00;;;;;22.00;37.62;98645.91;6236996;28;96786;-63
2022/12/26 11:40:03;;;;;;;;;34.00;30.00;;;;;23.24;34.94;98656.59;6234329;28;96126;-63
2022/12/26 11:43:16;;;;;;;;;29.20;26.20;;;;;23.32;34.03;98650.34;6223275;28;96849;-63
2022/12/26 11:46:20;;;;;;;;;28.00;26.00;;;;;23.09;33.86;98648.69;6240758;27;97259;-63
2022/12/26 11:49:33;;;;;;;;;31.00;28.60;;;;;22.62;34.64;98640.88;6241777;27;97116;-64
2022/12/26 11:52:39;;;;;;;;;32.40;30.00;;;;;21.81;35.89;98632.22;6224053;27;96670;-63
2022/12/26 11:55:43;;;;;;;;;33.00;30.40;;;;;20.98;36.94;98623.91;6242374;27;96570;-63
2022/12/26 11:58:47;;;;;;;;;33.33;30.00;;;;;20.47;37.85;98635.53;6239308;27;96649;-63
2022/12/26 12:02:24;;;;;;;;;33.20;30.00;;;;;20.38;38.80;98625.53;6233613;27;97030;-63
2022/12/26 12:05:43;;;;;;;;;33.00;28.00;;;;;21.23;37.43;98615.34;6233308;27;97712;-64
2022/12/26 12:08:56;;;;;;;;;24.00;24.00;;;;;22.50;35.64;98618.59;6238413;27;96278;-64
2022/12/26 12:12:16;;;;;;;;;20.00;18.00;;;;;23.83;33.69;98609.81;6239690;27;96942;-64
2022/12/26 12:15:25;;;;;;;;;12.75;12.00;;;;;24.35;32.36;98611.69;6236595;27;97233;-64
2022/12/26 12:18:43;;;;;;;;;13.00;13.00;;;;;24.58;32.65;98613.22;6240093;27;96465;-63
2022/12/26 12:22:03;;;;;;;;;14.67;12.00;;;;;24.57;32.05;98608.06;6241653;27;96446;-64
2022/12/26 12:25:48;;;;;;;;;10.60;10.60;;;;;24.30;32.04;98597.25;6223947;28;96712;-63
2022/12/26 12:29:25;;;;;;;;;10.60;9.60;;;;;24.10;32.25;98591.16;6201368;28;96812;-66
2022/12/26 12:32:33;;;;;;;;;10.50;10.00;;;;;24.19;32.39;98587.66;6240525;27;96598;-63
2022/12/26 12:35:54;;;;;;;;;9.00;9.00;;;;;23.64;32.83;98593.50;6239588;27;96437;-64
2022/12/26 12:39:09;;;;;;;;;10.00;10.00;;;;;23.11;33.67;98582.41;6234831;27;96755;-63
2022/12/26 12:42:34;;;;;;;;;8.75;8.75;;;;;22.87;34.08;98588.16;6255472;27;96421;-62
2022/12/26 12:45:46;;;;;;;;;7.60;7.60;;;;;22.39;34.87;98582.28;6230670;27;96397;-64
2022/12/26 12:49:25;;;;;;;;;9.67;9.00;;;;;21.77;35.92;98581.81;6243331;27;96348;-64
2022/12/26 12:52:41;;;;;;;;;13.00;13.00;;;;;21.53;36.17;98565.50;6238578;28;96533;-65
2022/12/26 12:56:00;;;;;;;;;10.00;9.00;;;;;21.66;36.14;98574.03;6218709;27;97398;-64
2022/12/26 12:59:15;;;;;;;;;12.60;12.00;;;;;21.33;36.78;98570.50;6236088;27;96226;-64
2022/12/26 13:02:25;;;;;;;;;13.00;12.80;;;;;20.87;37.25;98573.91;6237428;27;96521;-62
2022/12/26 13:05:40;;;;;;;;;10.00;9.00;;;;;20.45;38.42;98571.22;6233028;27;96543;-63
2022/12/26 13:08:48;;;;;;;;;12.40;12.40;;;;;20.00;39.47;98556.09;6233834;28;96539;-65
2022/12/26 13:12:01;;;;;;;;;10.00;10.00;;;;;19.75;39.59;98559.94;6234721;27;96193;-64
2022/12/26 13:15:09;;;;;;;;;10.00;9.60;;;;;19.55;40.25;98551.94;6237386;27;96717;-64
2022/12/26 13:18:17;;;;;;;;;10.80;10.80;;;;;19.34;40.91;98554.84;6240308;27;96903;-63
2022/12/26 13:21:23;;;;;;;;;10.00;10.00;;;;;19.17;41.09;98559.06;6238559;27;96883;-64
2022/12/26 13:24:30;;;;;;;;;10.00;8.60;;;;;18.95;41.88;98564.97;6238905;27;96432;-63
2022/12/26 13:27:38;;;;;;;;;13.00;13.00;;;;;18.74;42.38;98575.22;6224433;27;96656;-63
2022/12/26 13:30:42;;;;;;;;;13.60;12.00;;;;;18.57;42.70;98580.19;6228051;27;96761;-64
2022/12/26 13:33:46;;;;;;;;;10.80;10.00;;;;;18.42;43.00;98580.28;6240891;27;96480;-62
2022/12/26 13:36:51;;;;;;;;;16.00;15.00;;;;;18.22;43.41;98592.09;6235932;27;96500;-63
2022/12/26 13:39:54;;;;;;;;;18.80;17.20;;;;;17.99;43.92;98593.50;6224070;27;96263;-63
2022/12/26 13:46:38;;;;;;;;;24.00;22.00;;;;;17.57;44.61;98609.34;6242788;27;97555;-62
2022/12/26 13:49:42;;;;;;;;;26.40;24.00;;;;;17.40;44.95;98603.38;6236314;27;96607;-63
2022/12/26 13:52:46;;;;;;;;;24.00;23.40;;;;;17.51;45.13;98602.25;6238826;27;97076;-63
2022/12/26 13:55:51;;;;;;;;;18.20;17.20;;;;;17.44;44.85;98588.13;6240089;27;96238;-64
2022/12/26 13:59:02;;;;;;;;;18.00;16.50;;;;;17.24;45.55;98594.38;6238437;27;96383;-63
2022/12/26 14:02:25;;;;;;;;;17.00;17.00;;;;;17.12;45.58;98588.38;6237435;27;96838;-63
2022/12/26 14:06:06;;;;;;;;;18.20;17.00;;;;;17.03;45.94;98600.88;6237079;27;96811;-62
2022/12/26 14:09:38;;;;;;;;;21.20;20.00;;;;;16.83;46.25;98598.94;6242295;27;96393;-62
2022/12/26 14:13:02;;;;;;;;;25.60;23.00;;;;;16.66;46.93;98601.09;6138968;28;97013;-63
2022/12/26 14:16:17;;;;;;;;;25.20;23.20;;;;;16.48;47.20;98595.00;6118946;28;97653;-63
2022/12/26 14:19:36;;;;;;;;;31.00;28.40;;;;;16.33;47.72;98591.41;6139230;28;96671;-63
2022/12/26 14:22:52;;;;;;;;;28.00;26.60;;;;;16.19;47.86;98601.13;6129451;28;97030;-63
2022/12/26 14:26:05;;;;;;;;;32.50;30.00;;;;;16.01;48.71;98594.25;6133167;28;96599;-62
2022/12/26 14:29:21;;;;;;;;;30.40;28.00;;;;;15.90;48.73;98604.25;6133182;28;96323;-63
2022/12/26 14:32:39;;;;;;;;;32.20;29.80;;;;;15.82;48.91;98601.22;6135245;28;97103;-63
2022/12/26 14:35:52;;;;;;;;;28.50;24.75;;;;;15.76;48.95;98594.09;6132561;28;96317;-62
2022/12/26 14:39:02;;;;;;;;;27.00;24.00;;;;;15.76;48.98;98585.94;6134932;28;96528;-63
2022/12/26 14:45:49;;;;;;;;;22.20;21.80;;;;;15.66;49.40;98592.13;6135931;28;96570;-62
2022/12/26 14:48:58;;;;;;;;;23.50;21.50;;;;;15.71;49.37;98596.78;6164389;28;96391;-62
2022/12/26 14:52:36;;;;;;;;;26.40;24.00;;;;;15.63;49.38;98595.38;6233043;28;96737;-63
2022/12/26 14:55:48;;;;;;;;;23.40;21.40;;;;;15.66;49.42;98581.25;6221373;27;96673;-62
2022/12/26 14:58:52;;;;;;;;;24.00;22.00;;;;;15.77;49.51;98603.91;6237900;27;97614;-63
2022/12/26 15:02:10;;;;;;;;;31.75;29.00;;;;;15.76;49.54;98611.22;6234740;27;96822;-63
2022/12/26 15:05:21;;;;;;;;;36.60;31.00;;;;;15.60;49.50;98598.59;6234541;27;96757;-62
2022/12/26 15:08:47;;;;;;;;;33.75;31.00;;;;;15.62;49.83;98611.94;6227578;28;96834;-62
2022/12/26 15:12:18;;;;;;;;;35.80;32.00;;;;;15.53;50.07;98612.44;6232745;27;98042;-62
2022/12/26 15:16:01;;;;;;;;;32.00;29.00;;;;;15.43;50.50;98606.88;6230321;28;96747;-62
2022/12/26 15:19:43;;;;;;;;;33.00;30.00;;;;;15.45;50.44;98609.31;6242648;27;96157;-63
2022/12/26 15:23:32;;;;;;;;;38.00;33.80;;;;;15.33;50.94;98609.53;6236188;27;96800;-63
2022/12/26 15:27:01;;;;;;;;;35.00;31.00;;;;;15.31;50.95;98600.81;6171441;28;96463;-63
2022/12/26 15:30:17;;;;;;;;;35.40;32.00;;;;;15.32;50.82;98605.16;6237823;27;96621;-63
2022/12/26 15:33:28;;;;;;;;;38.60;33.60;;;;;15.29;51.06;98610.28;6236327;27;96929;-63
2022/12/26 15:36:44;;;;;;;;;42.40;34.40;;;;;15.17;51.49;98594.16;6233966;27;96349;-62
2022/12/26 15:39:53;;;;;;;;;41.50;34.25;;;;;15.15;51.63;98593.59;6239225;27;96636;-62
2022/12/26 15:43:38;;;;;;;;;42.00;35.00;;;;;15.12;51.81;98589.50;6234063;27;96721;-62
2022/12/26 15:46:47;;;;;;;;;42.00;35.00;;;;;15.05;52.29;98588.88;6222585;28;97279;-62
2022/12/26 15:50:15;;;;;;;;;42.00;35.20;;;;;15.06;52.26;98581.56;6238480;27;96474;-62
2022/12/26 15:53:29;;;;;;;;;41.20;35.00;;;;;15.10;52.05;98580.00;6234627;28;96481;-61
2022/12/26 15:57:04;;;;;;;;;42.00;35.60;;;;;15.16;52.05;98589.81;6245373;27;96274;-62
2022/12/26 16:00:14;;;;;;;;;39.00;34.00;;;;;15.14;52.17;98587.38;6216573;28;97020;-62
2022/12/26 16:03:30;;;;;;;;;42.20;35.00;;;;;15.15;52.12;98585.44;6236765;28;96383;-62
2022/12/26 16:06:49;;;;;;;;;46.00;35.00;;;;;15.22;51.98;98577.09;6237307;27;96403;-62
2022/12/26 16:09:55;;;;;;;;;43.40;36.00;;;;;15.15;52.15;98574.59;6231023;28;96301;-61
2022/12/26 16:13:03;;;;;;;;;45.00;37.00;;;;;15.11;52.38;98574.28;6241589;27;97433;-62
2022/12/26 16:16:09;;;;;;;;;45.60;36.60;;;;;15.08;52.64;98568.56;6240111;27;96426;-62
2022/12/26 16:19:18;;;;;;;;;45.00;36.33;;;;;15.00;52.88;98560.91;6236456;27;96663;-63
2022/12/26 16:22:42;;;;;;;;;45.20;36.80;;;;;14.96;52.82;98557.03;6233923;28;97660;-64
2022/12/26 16:25:47;;;;;;;;;42.50;34.00;;;;;14.94;52.98;98568.19;6218056;28;96607;-62
2022/12/26 16:28:52;;;;;;;;;40.00;33.00;;;;;14.93;53.23;98566.53;6236119;28;96363;-63
2022/12/26 16:32:05;;;;;;;;;39.20;32.20;;;;;14.91;53.37;98565.97;6236101;27;96590;-63
2022/12/26 16:35:18;;;;;;;;;36.40;32.00;;;;;14.95;53.29;98560.84;6233027;27;96674;-62
2022/12/26 16:38:26;;;;;;;;;33.50;30.25;;;;;14.94;53.32;98556.50;6235817;27;96689;-63
2022/12/26 16:41:32;;;;;;;;;27.40;25.40;;;;;15.00;53.05;98558.19;6234124;28;98525;-62
2022/12/26 16:44:37;;;;;;;;;28.20;25.80;;;;;15.05;52.36;98561.75;6233546;27;96282;-63
2022/12/26 16:47:43;;;;;;;;;19.00;17.00;;;;;15.07;52.30;98562.31;6238742;27;96937;-63
2022/12/26 16:50:49;;;;;;;;;19.60;17.80;;;;;15.18;51.94;98569.47;6237508;27;97439;-64